Time;durP1;ratioP1;P1;durP2;ratioP2;P2;SDS_P1;SDS_P2;PMS_P1;PMS_P2;Temp;Humidity;BMP_temperature;BMP_pressure;BME280_temperature;BME280_humidity;BME280_pressure;Samples;Min_cycle;Max_cycle;Signal;HPM_P1;HPM_P2
2022/11/08 06:47:38;;;;;;;;;;;;;;;17.18;59.03;99229.23;1963438;72;20155;-68
2022/11/08 06:50:26;;;;;;;;;;;;;;;17.54;58.58;99248.75;1894536;74;20186;-69
2022/11/08 06:53:13;;;;;;;;;;;;;;;18.36;57.29;99242.32;1905063;74;20159;-70
2022/11/08 06:56:01;;;;;;;;;;;;;;;19.04;55.96;99242.16;1904862;75;20158;-70
2022/11/08 06:58:51;;;;;;;1.50;1.40;;;;;;;19.65;54.88;99249.80;1899938;75;28077;-69
2022/11/08 07:01:39;;;;;;;1.55;1.45;;;;;;;20.16;53.95;99254.49;1884634;75;28032;-70
2022/11/08 07:04:30;;;;;;;1.40;1.40;;;;;;;20.52;52.75;99240.07;1882782;75;28124;-81
2022/11/08 07:07:18;;;;;;;1.65;1.55;;;;;;;20.86;51.62;99243.56;1893355;75;28022;-80
2022/11/08 07:10:07;;;;;;;1.60;1.50;;;;;;;21.11;50.78;99244.84;1877791;75;28113;-81
2022/11/08 07:13:05;;;;;;;1.87;1.57;;;;;;;21.37;50.33;99253.19;1895826;75;28092;-74
2022/11/08 07:15:55;;;;;;;1.67;1.47;;;;;;;21.52;49.80;99251.69;1873340;75;28167;-75
2022/11/08 07:18:44;;;;;;;1.80;1.60;;;;;;;21.70;49.23;99255.73;1871467;75;28158;-74
2022/11/08 07:21:32;;;;;;;1.60;1.40;;;;;;;21.85;48.82;99264.34;1883858;75;28093;-74
2022/11/08 07:24:20;;;;;;;1.47;1.37;;;;;;;21.97;48.40;99254.27;1874208;75;28196;-74
2022/11/08 07:27:09;;;;;;;1.62;1.52;;;;;;;22.09;48.00;99276.68;1879425;75;28080;-75
2022/11/08 07:29:57;;;;;;;1.60;1.45;;;;;;;22.16;47.57;99278.77;1873009;75;28155;-80
2022/11/08 07:32:45;;;;;;;2.25;1.62;;;;;;;22.21;47.77;99269.33;1869356;75;28113;-82
2022/11/08 07:35:52;;;;;;;1.95;1.70;;;;;;;22.28;47.68;99276.34;1880675;73;28168;-82
2022/11/08 07:38:40;;;;;;;1.52;1.42;;;;;;;22.35;47.94;99283.91;1886852;73;28181;-74
2022/11/08 07:41:28;;;;;;;2.00;1.60;;;;;;;22.40;47.86;99266.77;1886505;75;28018;-80
2022/11/08 07:44:16;;;;;;;2.27;1.75;;;;;;;22.47;47.56;99272.95;1879376;75;28239;-80
2022/11/08 07:47:06;;;;;;;1.50;1.40;;;;;;;22.44;47.25;99267.95;1869595;74;28137;-79
2022/11/08 07:49:55;;;;;;;3.77;1.60;;;;;;;22.53;46.95;99270.62;1876959;75;28129;-78
2022/11/08 07:52:43;;;;;;;1.60;1.50;;;;;;;22.56;46.75;99253.19;1884586;75;28359;-79
2022/11/08 07:55:31;;;;;;;2.42;1.70;;;;;;;22.56;46.48;99257.83;1873410;75;28215;-79
2022/11/08 07:58:20;;;;;;;3.40;1.60;;;;;;;22.58;46.29;99263.89;1877276;75;28107;-79
2022/11/08 08:01:08;;;;;;;1.75;1.42;;;;;;;22.60;46.09;99270.83;1897641;75;28023;-78
2022/11/08 08:03:57;;;;;;;3.05;1.55;;;;;;;22.59;45.99;99268.30;1884540;75;28157;-79
2022/11/08 08:06:45;;;;;;;1.82;1.72;;;;;;;22.58;45.81;99267.47;1892324;75;28097;-79
2022/11/08 08:09:34;;;;;;;2.42;1.35;;;;;;;22.59;45.73;99271.05;1890782;75;28037;-79
2022/11/08 08:12:23;;;;;;;1.50;1.40;;;;;;;22.61;45.62;99277.14;1887657;75;28252;-78
2022/11/08 08:15:13;;;;;;;1.45;1.35;;;;;;;22.60;45.52;99283.15;1875859;75;28232;-79
2022/11/08 08:18:03;;;;;;;3.52;1.60;;;;;;;22.57;45.49;99273.16;1868861;75;28166;-78
2022/11/08 08:20:51;;;;;;;1.60;1.50;;;;;;;22.57;45.48;99269.05;1869977;75;28104;-79
2022/11/08 08:23:40;;;;;;;1.52;1.42;;;;;;;22.55;45.41;99276.68;1873850;75;27994;-79
2022/11/08 08:26:28;;;;;;;1.75;1.50;;;;;;;22.56;45.27;99273.72;1877561;75;28139;-80
2022/11/08 08:29:17;;;;;;;1.50;1.35;;;;;;;22.58;45.25;99260.63;1876799;75;28120;-79
2022/11/08 08:32:06;;;;;;;1.50;1.40;;;;;;;22.58;45.22;99267.47;1875752;74;28139;-79
2022/11/08 08:34:55;;;;;;;1.40;1.40;;;;;;;22.62;45.12;99263.73;1879859;75;28101;-79
2022/11/08 08:37:43;;;;;;;1.80;1.40;;;;;;;22.61;45.11;99290.83;1900440;75;28100;-79
2022/11/08 08:40:32;;;;;;;2.20;1.60;;;;;;;22.59;45.06;99264.20;1871076;75;28241;-79
2022/11/08 08:43:21;;;;;;;1.95;1.60;;;;;;;22.61;44.98;99276.58;1879173;74;28131;-79
2022/11/08 08:46:10;;;;;;;1.77;1.35;;;;;;;22.59;44.98;99275.16;1876559;75;28154;-79
2022/11/08 08:48:58;;;;;;;1.50;1.40;;;;;;;22.59;44.94;99268.30;1876793;75;28154;-80
2022/11/08 08:51:48;;;;;;;1.50;1.40;;;;;;;22.58;44.88;99259.78;1877852;75;30236;-80
2022/11/08 08:54:37;;;;;;;1.65;1.50;;;;;;;;;;1872806;75;28277;-80
2022/11/08 08:57:28;;;;;;;2.37;1.55;;;;;;;22.61;44.85;99277.14;1884702;75;28112;-80
2022/11/08 09:00:21;;;;;;;1.40;1.30;;;;;;;22.61;44.85;99281.25;1867898;75;28184;-81
2022/11/08 09:03:11;;;;;;;1.90;1.70;;;;;;;22.62;44.78;99274.16;1877891;75;28211;-80
2022/11/08 09:06:00;;;;;;;1.70;1.60;;;;;;;22.63;44.67;99274.99;1897288;75;28100;-79
2022/11/08 09:08:48;;;;;;;1.60;1.50;;;;;;;22.61;44.76;99280.69;1882618;75;28093;-80
2022/11/08 09:11:36;;;;;;;1.60;1.50;;;;;;;22.62;44.72;99272.78;1870616;75;28727;-80
2022/11/08 09:14:24;;;;;;;1.60;1.50;;;;;;;22.63;44.72;99270.89;1859168;75;28317;-79
2022/11/08 09:17:13;;;;;;;1.42;1.32;;;;;;;22.62;44.68;99263.73;1860929;75;28114;-80
2022/11/08 09:20:02;;;;;;;1.60;1.50;;;;;;;22.65;44.63;99263.26;1859832;75;28199;-79
2022/11/08 09:22:50;;;;;;;2.45;1.60;;;;;;;22.68;44.57;99257.31;1821864;77;28086;-80
2022/11/08 09:25:38;;;;;;;1.30;1.30;;;;;;;22.71;44.49;99254.63;1819265;77;28207;-80
2022/11/08 09:28:32;;;;;;;3.30;1.42;;;;;;;22.75;44.44;99262.65;1816359;76;28241;-79
2022/11/08 09:31:20;;;;;;;2.42;1.37;;;;;;;22.75;44.36;99242.11;1821353;77;28370;-80
2022/11/08 09:34:09;;;;;;;2.50;1.60;;;;;;;22.77;44.34;99242.17;1834812;76;28264;-79
2022/11/08 09:36:57;;;;;;;2.50;1.20;;;;;;;22.79;44.28;99252.88;1839763;76;28212;-79
2022/11/08 09:39:47;;;;;;;1.50;1.40;;;;;;;22.77;44.23;99218.89;1824900;77;28305;-80
2022/11/08 09:42:50;;;;;;;1.15;1.15;;;;;;;22.78;44.20;99230.13;1853029;76;28283;-79
2022/11/08 09:45:51;;;;;;;1.47;1.37;;;;;;;22.81;44.16;99241.13;1849249;76;28201;-79
2022/11/08 09:48:42;;;;;;;1.30;1.20;;;;;;;22.83;44.15;99254.05;1826983;75;28219;-79
2022/11/08 09:51:33;;;;;;;1.30;1.30;;;;;;;22.81;44.13;99244.71;1820329;76;28367;-79
2022/11/08 09:54:29;;;;;;;1.40;1.30;;;;;;;22.82;44.09;99258.72;1850682;76;28320;-79
2022/11/08 09:57:23;;;;;;;1.32;1.25;;;;;;;22.83;44.04;99249.94;1828358;77;28300;-79
2022/11/08 10:00:13;;;;;;;1.50;1.40;;;;;;;22.85;44.02;99251.36;1840162;77;33067;-79
2022/11/08 10:03:02;;;;;;;1.60;1.50;;;;;;;22.85;43.98;99232.19;1840379;77;28192;-79
2022/11/08 10:05:56;;;;;;;1.75;1.32;;;;;;;22.85;44.03;99236.86;1846421;77;28188;-79
2022/11/08 10:08:59;;;;;;;1.50;1.40;;;;;;;22.88;43.95;99226.23;1752848;79;28370;-79
2022/11/08 10:12:05;;;;;;;1.60;1.37;;;;;;;22.89;43.91;99229.81;1774910;80;28473;-79
2022/11/08 10:15:04;;;;;;;1.42;1.32;;;;;;;22.89;43.89;99239.40;1782243;80;28365;-80
2022/11/08 10:18:04;;;;;;;1.50;1.40;;;;;;;22.85;43.95;99237.67;1762186;80;28394;-79
2022/11/08 10:20:59;;;;;;;1.40;1.30;;;;;;;22.83;43.98;99245.30;1792616;78;28284;-80
2022/11/08 10:23:53;;;;;;;1.20;1.20;;;;;;;22.82;44.04;99245.55;1783306;80;28675;-80
2022/11/08 10:26:47;;;;;;;1.50;1.20;;;;;;;22.81;43.99;99226.07;1790293;78;28538;-80
2022/11/08 10:29:39;;;;;;;1.70;1.50;;;;;;;22.82;44.04;99235.44;1794675;78;28294;-79
2022/11/08 10:32:32;;;;;;;1.30;1.25;;;;;;;22.83;44.02;99226.66;1810115;78;28231;-78
2022/11/08 10:35:45;;;;;;;1.50;1.30;;;;;;;22.82;44.02;99209.42;1778545;80;28395;-80
2022/11/08 10:38:41;;;;;;;1.30;1.30;;;;;;;22.83;44.01;99205.59;1769891;80;28387;-79
2022/11/08 10:41:32;;;;;;;1.32;1.22;;;;;;;22.81;44.08;99198.69;1772580;79;38795;-79
2022/11/08 10:44:23;;;;;;;1.27;1.17;;;;;;;22.85;44.00;99198.52;1791799;78;28225;-79
2022/11/08 10:47:14;;;;;;;1.80;1.47;;;;;;;22.85;43.93;99193.84;1778703;80;31244;-79
2022/11/08 10:50:15;;;;;;;1.30;1.20;;;;;;;22.86;43.95;99183.20;1787100;78;28319;-79
2022/11/08 10:53:06;;;;;;;1.50;1.40;;;;;;;22.86;43.93;99181.83;1809807;78;28267;-80
2022/11/08 10:56:06;;;;;;;2.02;1.30;;;;;;;22.82;44.00;99179.30;1789722;78;28295;-79
2022/11/08 10:58:54;;;;;;;1.47;1.37;;;;;;;22.81;44.00;99177.62;1781180;80;28295;-79
2022/11/08 11:01:44;;;;;;;1.50;1.40;;;;;;;22.81;44.02;99172.67;1802167;78;28370;-79
2022/11/08 11:04:33;;;;;;;1.20;1.20;;;;;;;22.78;44.10;99169.87;1770808;80;28382;-79
2022/11/08 11:07:36;;;;;;;2.20;1.30;;;;;;;22.79;44.13;99166.61;1794607;79;28271;-78
2022/11/08 11:10:27;;;;;;;1.40;1.30;;;;;;;22.81;44.06;99166.66;1793358;79;28388;-80
2022/11/08 11:13:22;;;;;;;1.40;1.30;;;;;;;22.82;44.09;99162.86;1780760;79;28272;-79
2022/11/08 11:16:13;;;;;;;1.30;1.20;;;;;;;22.85;43.98;99167.02;1836137;77;38558;-80
2022/11/08 11:19:04;;;;;;;1.22;1.20;;;;;;;22.84;44.01;99155.23;1821786;77;28166;-79
2022/11/08 11:22:05;;;;;;;1.30;1.20;;;;;;;22.85;44.03;99143.19;1861701;76;28223;-79
2022/11/08 11:24:54;;;;;;;1.22;1.20;;;;;;;22.83;44.00;99134.91;1849790;76;28236;-79
2022/11/08 11:27:44;;;;;;;1.30;1.30;;;;;;;22.82;44.03;99138.22;1824131;77;28252;-79
2022/11/08 11:30:36;;;;;;;1.60;1.20;;;;;;;22.84;44.07;99137.96;1827702;76;28211;-79
2022/11/08 11:33:28;;;;;;;1.47;1.37;;;;;;;22.84;44.05;99130.58;1834049;76;28360;-80
2022/11/08 11:36:21;;;;;;;1.20;1.20;;;;;;;22.86;44.09;99128.95;1829929;77;28218;-80
2022/11/08 11:39:28;;;;;;;1.12;1.12;;;;;;;22.86;43.98;99128.42;1834000;76;28178;-81
2022/11/08 11:42:26;;;;;;;1.82;1.15;;;;;;;22.92;43.96;99122.52;1851829;76;28745;-80
2022/11/08 11:45:27;;;;;;;1.25;1.25;;;;;;;22.92;43.92;99115.67;1801855;77;28179;-79
2022/11/08 11:48:18;;;;;;;2.00;1.40;;;;;;;22.93;43.96;99114.05;1842451;76;28175;-80
2022/11/08 11:51:10;;;;;;;1.10;1.10;;;;;;;22.95;43.89;99110.52;1827449;77;28200;-80
2022/11/08 11:54:00;;;;;;;1.30;1.20;;;;;;;23.00;43.83;99111.14;1861405;76;28250;-79
2022/11/08 11:57:04;;;;;;;1.45;1.22;;;;;;;23.02;43.79;99104.88;1865845;76;31153;-79
2022/11/08 12:00:09;;;;;;;1.50;1.40;;;;;;;23.05;43.75;99098.38;1850650;76;28166;-79
2022/11/08 12:03:00;;;;;;;1.20;1.20;;;;;;;23.04;43.71;99102.19;1850243;76;28181;-79
2022/11/08 12:06:11;;;;;;;1.30;1.30;;;;;;;23.05;43.63;99101.66;1856825;76;28161;-79
2022/11/08 12:09:21;;;;;;;1.43;1.33;;;;;;;23.06;43.71;99095.08;1871441;76;28139;-79
2022/11/08 12:12:46;;;;;;;1.12;1.07;;;;;;;23.06;43.69;99094.55;1854655;76;28100;-79
2022/11/08 12:15:53;;;;;;;1.40;1.30;;;;;;;23.07;43.62;99088.53;1783662;79;28367;-79
2022/11/08 12:19:03;;;;;;;1.27;1.17;;;;;;;23.05;43.69;99090.16;1861587;76;28188;-80
2022/11/08 12:22:18;;;;;;;1.50;1.20;;;;;;;23.07;43.67;99089.38;1820317;77;38635;-80
2022/11/08 12:25:16;;;;;;;1.12;1.12;;;;;;;23.09;43.66;99090.48;1790794;79;28782;-80
2022/11/08 12:28:20;;;;;;;1.40;1.30;;;;;;;23.08;43.66;99084.17;1806073;79;28286;-80
2022/11/08 12:31:35;;;;;;;1.32;1.20;;;;;;;23.11;43.58;99076.83;1811639;77;28889;-80
2022/11/08 12:34:29;;;;;;;1.37;1.10;;;;;;;23.12;43.56;99073.56;1856585;76;30121;-79
2022/11/08 12:37:29;;;;;;;1.20;1.20;;;;;;;23.11;43.60;99071.88;1807445;77;28385;-81
2022/11/08 12:40:46;;;;;;;1.20;1.20;;;;;;;23.09;43.57;99069.41;1813390;77;28365;-80
2022/11/08 12:43:58;;;;;;;1.20;1.10;;;;;;;23.10;43.56;99064.23;1793694;77;28295;-80
2022/11/08 12:47:26;;;;;;;1.20;1.20;;;;;;;23.07;43.66;99055.13;1856452;76;28328;-81
2022/11/08 12:50:42;;;;;;;1.10;1.05;;;;;;;23.06;43.70;99055.36;1832023;77;28304;-80
2022/11/08 12:53:48;;;;;;;1.65;1.35;;;;;;;23.04;43.71;99047.93;1801169;78;28300;-80
2022/11/08 12:56:41;;;;;;;1.17;1.17;;;;;;;23.01;43.77;99048.45;1805435;78;28362;-79
2022/11/08 12:59:36;;;;;;;1.20;1.20;;;;;;;23.02;43.79;99052.83;1807408;78;28283;-79
2022/11/08 13:02:30;;;;;;;1.20;1.10;;;;;;;23.04;43.76;99036.97;1811886;78;28298;-79
2022/11/08 13:05:26;;;;;;;1.17;1.17;;;;;;;23.05;43.71;99038.12;1805696;78;28249;-80
2022/11/08 13:08:19;;;;;;;1.35;1.20;;;;;;;23.08;43.73;99043.64;1805641;78;28272;-79
2022/11/08 13:11:11;;;;;;;1.40;1.30;;;;;;;23.07;43.73;99038.69;1805662;78;28399;-79
2022/11/08 13:13:59;;;;;;;1.10;1.10;;;;;;;23.05;43.76;99030.42;1808770;78;31333;-79
2022/11/08 13:17:07;;;;;;;1.20;1.20;;;;;;;23.02;43.77;99033.13;1795534;79;28478;-80
2022/11/08 13:20:03;;;;;;;1.10;1.10;;;;;;;23.03;43.76;99031.22;1805496;78;28276;-79
2022/11/08 13:22:59;;;;;;;1.07;1.07;;;;;;;23.03;43.81;99026.58;1805462;78;28294;-79
2022/11/08 13:25:48;;;;;;;1.12;1.12;;;;;;;23.02;43.81;99021.33;1805229;78;28323;-79
2022/11/08 13:28:42;;;;;;;1.20;1.20;;;;;;;23.03;43.81;99023.00;1807908;78;28396;-79
2022/11/08 13:31:40;;;;;;;1.22;1.20;;;;;;;23.05;43.77;99021.68;1795339;79;28420;-80
2022/11/08 13:34:52;;;;;;;1.30;1.20;;;;;;;23.03;43.72;99012.88;1795309;79;28384;-79
2022/11/08 13:37:56;;;;;;;1.15;1.07;;;;;;;23.01;43.77;99013.64;1769488;79;28492;-79
2022/11/08 13:41:15;;;;;;;1.15;1.15;;;;;;;23.01;43.83;99021.86;1816466;78;28907;-79
2022/11/08 13:44:06;;;;;;;0.90;0.90;;;;;;;23.02;43.79;99016.69;1776061;79;28305;-79
2022/11/08 13:46:55;;;;;;;1.20;1.10;;;;;;;23.05;43.79;99014.83;1802677;79;28566;-80
2022/11/08 13:49:45;;;;;;;1.20;1.10;;;;;;;23.08;43.73;99013.50;1836587;77;32681;-79
2022/11/08 13:52:44;;;;;;;1.00;1.00;;;;;;;23.10;43.67;99012.17;1807757;78;28365;-79
2022/11/08 13:55:47;;;;;;;1.70;1.10;;;;;;;23.11;43.70;99015.19;1811735;78;28346;-80
2022/11/08 13:58:47;;;;;;;1.00;1.00;;;;;;;23.12;43.60;99008.64;1870666;76;28190;-79
2022/11/08 14:01:51;;;;;;;1.00;1.00;;;;;;;23.10;43.68;99001.75;1867398;76;28228;-80
2022/11/08 14:04:42;;;;;;;1.00;1.00;;;;;;;23.11;43.64;98997.91;1867279;76;28204;-80
2022/11/08 14:07:39;;;;;;;1.30;1.20;;;;;;;23.11;43.62;99008.34;1846178;76;28506;-80
2022/11/08 14:10:36;;;;;;;1.32;1.22;;;;;;;23.14;43.63;99009.22;1863222;76;28255;-79
2022/11/08 14:13:30;;;;;;;1.02;1.02;;;;;;;23.14;43.57;99005.64;1857385;76;28143;-80
2022/11/08 14:16:22;;;;;;;1.00;1.00;;;;;;;23.13;43.55;99008.91;1799492;78;28205;-79
2022/11/08 14:19:27;;;;;;;0.93;0.93;;;;;;;23.15;43.55;99001.84;1858489;76;28233;-79
2022/11/08 14:22:23;;;;;;;1.67;1.20;;;;;;;23.16;43.58;99007.59;1870283;76;28209;-79
2022/11/08 14:25:17;;;;;;;1.10;1.10;;;;;;;23.14;43.55;98993.31;1862417;76;28204;-79
2022/11/08 14:28:25;;;;;;;1.02;1.02;;;;;;;23.16;43.58;98993.89;1858337;76;28220;-79
2022/11/08 14:31:29;;;;;;;0.80;0.80;;;;;;;23.17;43.53;98997.77;1867495;76;28388;-79
2022/11/08 14:34:32;;;;;;;1.20;1.10;;;;;;;23.15;43.53;98999.90;1867437;76;28373;-80
2022/11/08 14:37:26;;;;;;;1.00;1.00;;;;;;;23.14;43.59;98994.16;1867462;76;28213;-80
2022/11/08 14:40:23;;;;;;;1.10;1.10;;;;;;;23.16;43.52;98993.36;1867468;76;28125;-79
2022/11/08 14:43:12;;;;;;;0.85;0.85;;;;;;;23.16;43.51;98985.14;1864870;76;28146;-79
2022/11/08 14:46:17;;;;;;;0.80;0.80;;;;;;;23.14;43.57;98996.89;1865301;76;28150;-79
2022/11/08 14:49:17;;;;;;;0.90;0.90;;;;;;;23.21;43.45;98987.95;1857215;76;28135;-79
2022/11/08 14:52:29;;;;;;;1.23;1.17;;;;;;;23.22;43.39;98983.31;1857098;76;28131;-79
2022/11/08 14:55:20;;;;;;;1.00;1.00;;;;;;;23.16;43.39;98981.02;1840968;75;28179;-79
2022/11/08 14:58:16;;;;;;;0.97;0.97;;;;;;;23.14;43.50;98986.46;1841003;76;28180;-79
2022/11/08 15:01:09;;;;;;;0.90;0.90;;;;;;;23.12;43.57;98981.78;1843335;76;28227;-80
2022/11/08 15:04:06;;;;;;;1.02;1.02;;;;;;;23.10;43.58;98981.20;1819262;78;28304;-79
2022/11/08 15:06:57;;;;;;;1.00;1.00;;;;;;;23.10;43.53;98978.47;1829351;77;28266;-80
2022/11/08 15:09:47;;;;;;;0.93;0.93;;;;;;;23.10;43.58;98979.30;1840844;76;28151;-79
2022/11/08 15:12:42;;;;;;;1.00;1.00;;;;;;;23.09;43.57;98968.57;1841262;76;28293;-79
2022/11/08 15:15:33;;;;;;;1.07;1.07;;;;;;;23.08;43.60;98960.08;1833712;77;28184;-80
2022/11/08 15:18:26;;;;;;;0.90;0.90;;;;;;;23.09;43.61;98961.72;1819332;78;28320;-79
2022/11/08 15:21:24;;;;;;;0.98;0.95;;;;;;;23.11;43.60;98975.46;1818054;78;28240;-79
2022/11/08 15:24:15;;;;;;;1.00;1.00;;;;;;;23.08;43.60;98967.73;1817090;77;28214;-79
2022/11/08 15:27:16;;;;;;;0.90;0.90;;;;;;;23.08;43.62;98960.08;1831186;77;28229;-80
2022/11/08 15:30:10;;;;;;;1.00;1.00;;;;;;;23.04;43.68;98951.52;1847311;76;28058;-80
2022/11/08 15:33:01;;;;;;;1.02;1.00;;;;;;;23.04;43.69;98959.73;1831506;77;28171;-81
2022/11/08 15:35:51;;;;;;;1.30;0.98;;;;;;;23.01;43.75;98962.16;1862246;76;28092;-80
2022/11/08 15:38:46;;;;;;;1.10;1.00;;;;;;;23.04;43.70;98951.52;1840125;76;28165;-80
2022/11/08 15:41:37;;;;;;;1.20;1.10;;;;;;;23.03;43.71;98948.51;1830863;78;28245;-79
2022/11/08 15:44:26;;;;;;;0.95;0.95;;;;;;;23.03;43.70;98956.73;1819578;78;28203;-80
2022/11/08 15:47:36;;;;;;;1.00;1.00;;;;;;;23.02;43.71;98955.05;1830815;78;28147;-81
2022/11/08 15:50:34;;;;;;;0.95;0.95;;;;;;;23.03;43.75;98951.78;1825130;77;28097;-80
2022/11/08 15:53:19;;;;;;;0.90;0.90;;;;;;;22.99;43.77;98947.33;1838886;76;31114;-80
2022/11/08 15:56:09;;;;;;;1.00;1.00;;;;;;;22.99;43.85;98936.91;1836496;77;28201;-80
2022/11/08 15:58:59;;;;;;;1.00;1.00;;;;;;;23.01;43.80;98938.31;1831677;77;28213;-80
2022/11/08 16:02:01;;;;;;;1.00;1.00;;;;;;;23.00;43.81;98946.26;1843522;77;28264;-81
2022/11/08 16:04:50;;;;;;;1.00;1.00;;;;;;;23.02;43.79;98944.09;1851868;76;28151;-79
2022/11/08 16:07:38;;;;;;;0.90;0.90;;;;;;;23.02;43.75;98958.33;1838890;77;28131;-80
2022/11/08 16:10:36;;;;;;;1.00;1.00;;;;;;;23.01;43.73;98951.20;1833603;77;28063;-80
2022/11/08 16:13:30;;;;;;;0.85;0.85;;;;;;;22.98;43.78;98947.05;1862052;76;28142;-79
2022/11/08 16:16:18;;;;;;;1.22;0.98;;;;;;;23.00;43.84;98944.89;1834549;76;28139;-80
2022/11/08 16:19:13;;;;;;;0.90;0.90;;;;;;;23.02;43.74;98945.47;1852327;76;28217;-79
2022/11/08 16:22:06;;;;;;;1.10;1.10;;;;;;;23.06;43.73;98941.67;1849488;77;28111;-80
2022/11/08 16:24:51;;;;;;;0.80;0.80;;;;;;;23.04;43.73;98940.56;1842227;76;28187;-80
2022/11/08 16:27:40;;;;;;;0.90;0.90;;;;;;;23.05;43.74;98935.92;1856370;76;28203;-80
2022/11/08 16:30:28;;;;;;;1.10;1.00;;;;;;;23.02;43.72;98939.98;1851652;76;28266;-78
2022/11/08 16:33:23;;;;;;;0.90;0.90;;;;;;;23.04;43.74;98928.77;1846254;76;28177;-81
2022/11/08 16:36:19;;;;;;;0.90;0.90;;;;;;;23.05;43.70;98932.64;1842279;76;28211;-81
2022/11/08 16:39:10;;;;;;;1.00;1.00;;;;;;;23.05;43.68;98932.64;1862096;76;28082;-80
2022/11/08 16:42:00;;;;;;;0.90;0.90;;;;;;;23.06;43.66;98932.08;1831039;77;28101;-80
2022/11/08 16:44:48;;;;;;;1.00;1.00;;;;;;;23.07;43.69;98941.97;1844535;76;28164;-81
2022/11/08 16:47:36;;;;;;;1.02;0.93;;;;;;;23.11;43.61;98948.59;1818038;76;28159;-80
2022/11/08 16:50:26;;;;;;;1.00;1.00;;;;;;;23.11;43.59;98945.33;1855699;76;28226;-80
2022/11/08 16:53:21;;;;;;;1.00;1.00;;;;;;;23.10;43.54;98946.42;1840972;77;28089;-79
2022/11/08 16:56:10;;;;;;;0.90;0.90;;;;;;;23.10;43.59;98947.80;1844507;76;28291;-80
2022/11/08 16:58:58;;;;;;;1.05;0.98;;;;;;;23.14;43.50;98955.80;1819438;78;28187;-80
2022/11/08 17:01:48;;;;;;;0.90;0.90;;;;;;;23.12;43.45;98956.59;1830524;78;28230;-80
2022/11/08 17:04:36;;;;;;;1.70;1.00;;;;;;;23.11;43.55;98956.81;1819095;78;28206;-79
2022/11/08 17:07:27;;;;;;;0.90;0.90;;;;;;;23.07;43.54;98960.62;1847087;76;28178;-80
2022/11/08 17:10:26;;;;;;;0.78;0.78;;;;;;;23.05;43.64;98957.84;1838308;77;28132;-80
2022/11/08 17:13:16;;;;;;;0.78;0.78;;;;;;;23.05;43.63;98955.09;1840138;77;28272;-81
2022/11/08 17:16:04;;;;;;;1.20;1.10;;;;;;;23.03;43.68;98959.47;1851567;76;28132;-80
2022/11/08 17:18:52;;;;;;;0.80;0.80;;;;;;;23.05;43.68;98963.31;1849170;76;28147;-80
2022/11/08 17:21:44;;;;;;;0.90;0.90;;;;;;;23.05;43.67;98962.78;1843469;76;28095;-79
2022/11/08 17:24:31;;;;;;;0.90;0.90;;;;;;;23.05;43.66;98962.78;1840767;76;28152;-80
2022/11/08 17:27:20;;;;;;;0.85;0.85;;;;;;;23.05;43.68;98964.68;1829384;77;28185;-80
2022/11/08 17:30:10;;;;;;;0.95;0.95;;;;;;;23.03;43.70;98965.48;1832407;76;28062;-80
2022/11/08 17:32:58;;;;;;;1.07;1.07;;;;;;;23.05;43.67;98957.84;1819374;78;28140;-79
2022/11/08 17:35:46;;;;;;;0.80;0.80;;;;;;;23.04;43.69;98970.70;1857412;76;28139;-80
2022/11/08 17:38:36;;;;;;;0.70;0.70;;;;;;;23.02;43.71;98967.38;1850851;76;28125;-79
2022/11/08 17:41:25;;;;;;;0.70;0.70;;;;;;;23.04;43.71;98972.59;1799648;79;28316;-79
2022/11/08 17:44:15;;;;;;;0.85;0.85;;;;;;;23.02;43.69;98982.44;1826559;77;28310;-81
2022/11/08 17:47:03;;;;;;;1.00;0.88;;;;;;;23.00;43.73;98980.50;1852249;76;28302;-82
2022/11/08 17:49:52;;;;;;;0.77;0.77;;;;;;;22.99;43.81;98983.47;1861954;76;28138;-79
2022/11/08 17:52:41;;;;;;;0.90;0.90;;;;;;;22.96;44.13;98986.20;1845573;75;28228;-80
2022/11/08 17:55:30;;;;;;;3.42;1.15;;;;;;;23.00;44.07;98997.47;1852247;76;28225;-78
2022/11/08 17:58:18;;;;;;;1.00;0.90;;;;;;;22.99;44.13;98996.63;1847944;76;28254;-79
2022/11/08 18:01:07;;;;;;;0.88;0.88;;;;;;;22.98;44.14;98992.25;1845025;76;28158;-79
2022/11/08 18:03:55;;;;;;;0.80;0.80;;;;;;;23.05;44.08;98987.44;1848702;76;28300;-79
2022/11/08 18:06:44;;;;;;;0.70;0.70;;;;;;;23.05;44.03;98988.80;1849641;76;28382;-79
2022/11/08 18:09:32;;;;;;;0.80;0.80;;;;;;;23.06;43.96;98978.12;1844661;76;28177;-79
2022/11/08 18:12:20;;;;;;;0.90;0.90;;;;;;;23.05;43.89;98980.59;1843242;76;28258;-78
2022/11/08 18:15:10;;;;;;;0.80;0.80;;;;;;;23.08;43.85;98978.70;1841803;76;28161;-79
2022/11/08 18:17:58;;;;;;;1.23;1.00;;;;;;;23.12;43.78;98981.78;1837277;75;28393;-78
2022/11/08 18:20:54;;;;;;;1.00;1.00;;;;;;;23.13;43.76;98976.57;1843236;75;28375;-79
2022/11/08 18:23:44;;;;;;;1.60;0.90;;;;;;;23.16;43.63;98973.34;1850167;75;28614;-79
2022/11/08 18:26:32;;;;;;;0.93;0.93;;;;;;;23.15;43.58;98978.55;1844658;76;28161;-78
2022/11/08 18:29:22;;;;;;;0.80;0.80;;;;;;;23.18;43.61;98980.23;1832939;76;28244;-78
2022/11/08 18:32:11;;;;;;;0.88;0.88;;;;;;;23.16;43.61;98970.06;1852526;76;28145;-78
2022/11/08 18:35:00;;;;;;;0.80;0.80;;;;;;;23.15;43.59;98979.35;1829343;78;33468;-78
2022/11/08 18:37:49;;;;;;;0.93;0.82;;;;;;;23.15;43.55;98977.18;1853453;76;28210;-79
2022/11/08 18:40:37;;;;;;;0.90;0.90;;;;;;;23.16;43.53;98972.81;1859645;76;28204;-78
2022/11/08 18:43:25;;;;;;;0.83;0.83;;;;;;;23.17;43.50;98973.11;1848630;76;28231;-78
2022/11/08 18:46:16;;;;;;;0.90;0.90;;;;;;;23.16;43.52;98970.59;1867629;76;28123;-79
2022/11/08 18:49:05;;;;;;;0.90;0.90;;;;;;;23.16;43.54;98974.71;1839432;76;28139;-79
2022/11/08 18:51:55;;;;;;;0.88;0.88;;;;;;;23.16;43.51;98967.33;1854843;76;28097;-79
2022/11/08 18:54:46;;;;;;;0.80;0.80;;;;;;;23.16;43.51;98968.70;1840717;76;28238;-79
2022/11/08 18:57:34;;;;;;;0.90;0.90;;;;;;;23.13;43.57;98971.93;1850877;75;28129;-79
2022/11/08 19:00:22;;;;;;;1.30;0.80;;;;;;;23.16;43.56;98970.59;1861030;76;28351;-78
2022/11/08 19:03:11;;;;;;;0.85;0.78;;;;;;;23.19;43.49;98964.09;1861227;74;28156;-78
2022/11/08 19:06:01;;;;;;;0.80;0.80;;;;;;;23.19;43.47;98955.88;1851249;76;28261;-79
2022/11/08 19:08:51;;;;;;;1.00;0.80;;;;;;;23.18;43.48;98951.46;1839572;77;28202;-79
2022/11/08 19:11:39;;;;;;;0.80;0.80;;;;;;;23.18;43.46;98954.73;1859347;76;28301;-80
2022/11/08 19:14:29;;;;;;;0.80;0.80;;;;;;;23.23;43.47;98953.45;1839689;76;28260;-78
2022/11/08 19:17:18;;;;;;;0.90;0.90;;;;;;;23.19;43.48;98946.28;1857109;76;28219;-78
2022/11/08 19:20:07;;;;;;;0.80;0.80;;;;;;;23.16;43.51;98948.14;1852237;76;28187;-78
2022/11/08 19:22:55;;;;;;;0.78;0.78;;;;;;;23.15;43.52;98946.47;1870375;76;28716;-78
2022/11/08 19:25:44;;;;;;;0.85;0.85;;;;;;;23.13;43.55;98939.05;1841398;76;28241;-78
2022/11/08 19:28:43;;;;;;;0.90;0.90;;;;;;;23.11;43.64;98933.00;1848927;76;28194;-79
2022/11/08 19:31:34;;;;;;;0.90;0.90;;;;;;;23.12;43.63;98933.84;1845044;76;28194;-78
2022/11/08 19:34:22;;;;;;;0.90;0.90;;;;;;;23.14;43.64;98935.78;1839464;77;28850;-78
2022/11/08 19:37:10;;;;;;;0.93;0.93;;;;;;;23.12;43.61;98932.47;1838220;76;28233;-78
2022/11/08 19:39:59;;;;;;;1.00;0.70;;;;;;;23.12;43.63;98931.93;1858649;76;33071;-78
2022/11/08 19:42:47;;;;;;;0.70;0.70;;;;;;;23.12;43.68;98950.27;1852842;76;28501;-79
2022/11/08 19:45:36;;;;;;;0.70;0.70;;;;;;;23.14;43.68;98946.73;1857140;76;28235;-79
2022/11/08 19:48:24;;;;;;;0.80;0.80;;;;;;;23.15;43.60;98946.47;1839389;77;28182;-78
2022/11/08 19:51:15;;;;;;;1.62;0.90;;;;;;;23.13;43.68;98950.01;1852792;76;28306;-78
2022/11/08 19:54:06;;;;;;;0.80;0.80;;;;;;;23.12;43.67;98948.37;1851749;76;31023;-78
2022/11/08 19:56:55;;;;;;;0.85;0.85;;;;;;;23.10;43.67;98954.64;1850139;76;28152;-79
2022/11/08 19:59:44;;;;;;;0.82;0.82;;;;;;;23.12;43.71;98951.64;1837546;76;28206;-77
2022/11/08 20:02:33;;;;;;;2.22;1.10;;;;;;;23.08;43.82;98944.45;1849741;77;28183;-83
2022/11/08 20:05:23;;;;;;;5.17;2.45;;;;;;;23.15;44.22;98944.30;1841703;77;28184;-84
2022/11/08 20:08:11;;;;;;;18.35;8.93;;;;;;;23.20;44.65;98944.34;1844043;77;28314;-79
2022/11/08 20:11:00;;;;;;;18.30;7.58;;;;;;;23.12;45.11;98938.78;1821222;77;28284;-80
